createdAt,value
2017-08-05T00:00:39.108Z,0
2017-08-05T00:01:39.104Z,0
2017-08-05T00:02:39.115Z,0
2017-08-05T00:03:39.115Z,0
2017-08-05T00:04:38.815Z,0
2017-08-05T00:05:38.805Z,0
2017-08-05T00:06:38.817Z,0
2017-08-05T00:07:39.126Z,0
2017-08-05T00:08:39.129Z,0
2017-08-05T00:09:39.116Z,0
2017-08-05T00:10:38.825Z,0
2017-08-05T00:11:38.822Z,0
2017-08-05T00:12:39.130Z,0
2017-08-05T00:13:39.131Z,0
2017-08-05T00:14:38.876Z,0
2017-08-05T00:15:38.830Z,0
2017-08-05T00:16:39.131Z,0
2017-08-05T00:17:38.838Z,0
2017-08-05T00:18:38.836Z,0
2017-08-05T00:19:38.556Z,0
2017-08-05T00:20:39.155Z,0
2017-08-05T00:21:39.163Z,0
2017-08-05T00:22:38.866Z,0
2017-08-05T00:23:39.154Z,0
2017-08-05T00:24:38.565Z,0
2017-08-05T00:25:38.861Z,0
2017-08-05T00:26:39.167Z,0
2017-08-05T00:27:39.164Z,0
2017-08-05T00:28:39.180Z,0
2017-08-05T00:29:41.140Z,0
2017-08-05T00:30:39.184Z,0
2017-08-05T00:31:38.873Z,0
2017-08-05T00:32:39.001Z,0
2017-08-05T00:33:39.295Z,0
2017-08-05T00:34:39.071Z,0
2017-08-05T00:35:39.255Z,0
2017-08-05T00:36:39.332Z,0
2017-08-05T00:37:39.497Z,0
2017-08-05T00:38:39.208Z,0
2017-08-05T00:39:38.811Z,0
2017-08-05T00:40:39.197Z,0
2017-08-05T00:41:39.204Z,0
2017-08-05T00:42:39.291Z,0
2017-08-05T00:43:38.903Z,0
2017-08-05T00:44:38.624Z,0
2017-08-05T00:45:38.632Z,0
2017-08-05T00:46:39.209Z,0
2017-08-05T00:47:38.632Z,0
2017-08-05T00:48:38.913Z,0
2017-08-05T00:49:38.912Z,0
2017-08-05T00:50:39.221Z,0
2017-08-05T00:51:38.930Z,0
2017-08-05T00:52:38.932Z,0
2017-08-05T00:53:39.223Z,0
2017-08-05T00:54:38.935Z,0
2017-08-05T00:55:38.962Z,0
2017-08-05T00:56:39.247Z,0
2017-08-05T00:57:39.241Z,0
2017-08-05T00:58:39.247Z,0
2017-08-05T00:59:39.249Z,0
2017-08-05T01:00:38.951Z,0
2017-08-05T01:01:39.252Z,0
2017-08-05T01:02:38.959Z,0
2017-08-05T01:03:39.254Z,0
2017-08-05T01:04:39.270Z,0
2017-08-05T01:05:38.978Z,0
2017-08-05T01:06:39.277Z,0
2017-08-05T01:07:38.970Z,0
2017-08-05T01:08:39.298Z,0
2017-08-05T01:09:38.678Z,0
2017-08-05T01:10:38.973Z,0
2017-08-05T01:11:39.274Z,0
2017-08-05T01:12:39.301Z,0
2017-08-05T01:13:39.277Z,0
2017-08-05T01:14:38.992Z,0
2017-08-05T01:15:39.347Z,0
2017-08-05T01:16:39.302Z,0
2017-08-05T01:17:39.308Z,0
2017-08-05T01:18:39.307Z,0
2017-08-05T01:19:39.304Z,0
2017-08-05T01:20:39.333Z,0
2017-08-05T01:21:39.003Z,0
2017-08-05T01:22:38.704Z,0
2017-08-05T01:23:39.305Z,0
2017-08-05T01:24:39.312Z,0
2017-08-05T01:25:39.308Z,0
2017-08-05T01:26:39.308Z,0
2017-08-05T01:27:39.323Z,0
2017-08-05T01:28:39.321Z,0
2017-08-05T01:29:39.320Z,0
2017-08-05T01:30:39.668Z,0
2017-08-05T01:31:39.339Z,0
2017-08-05T01:32:39.324Z,0
2017-08-05T01:33:39.028Z,0
2017-08-05T01:34:39.358Z,0
2017-08-05T01:35:38.742Z,0
2017-08-05T01:36:39.039Z,0
2017-08-05T01:37:39.037Z,0
2017-08-05T01:38:39.336Z,0
2017-08-05T01:39:39.341Z,0
2017-08-05T01:40:39.363Z,0
2017-08-05T01:41:39.059Z,0
2017-08-05T01:42:38.742Z,0
2017-08-05T01:43:39.356Z,0
2017-08-05T01:44:39.354Z,0
2017-08-05T01:45:43.528Z,0
2017-08-05T01:46:39.370Z,0
2017-08-05T01:47:39.376Z,0
2017-08-05T01:48:39.370Z,0
2017-08-05T01:49:39.092Z,0
2017-08-05T01:50:39.389Z,0
2017-08-05T01:51:39.103Z,0
2017-08-05T01:52:39.068Z,0
2017-08-05T01:53:39.733Z,0
2017-08-05T01:54:39.110Z,0
2017-08-05T01:55:39.378Z,0
2017-08-05T01:56:39.084Z,0
2017-08-05T01:57:39.386Z,0
2017-08-05T01:58:39.383Z,0
2017-08-05T01:59:39.389Z,0
2017-08-05T02:00:44.113Z,0
2017-08-05T02:01:39.109Z,0
2017-08-05T02:02:39.109Z,0
2017-08-05T02:03:39.400Z,0
2017-08-05T02:04:39.410Z,0
2017-08-05T02:05:38.813Z,0
2017-08-05T02:06:39.449Z,0
2017-08-05T02:07:39.403Z,0
2017-08-05T02:08:39.415Z,0
2017-08-05T02:09:39.413Z,0
2017-08-05T02:10:39.116Z,0
2017-08-05T02:11:39.163Z,0
2017-08-05T02:12:39.426Z,0
2017-08-05T02:13:39.145Z,0
2017-08-05T02:14:39.432Z,0
2017-08-05T02:15:39.134Z,0
2017-08-05T02:16:39.429Z,0
2017-08-05T02:17:39.127Z,0
2017-08-05T02:18:39.432Z,0
2017-08-05T02:19:39.431Z,0
2017-08-05T02:20:39.175Z,0
2017-08-05T02:21:39.459Z,0
2017-08-05T02:22:39.462Z,0
2017-08-05T02:23:38.868Z,0
2017-08-05T02:24:39.461Z,0
2017-08-05T02:25:39.153Z,0
2017-08-05T02:26:39.458Z,0
2017-08-05T02:27:39.469Z,0
2017-08-05T02:28:39.166Z,0
2017-08-05T02:29:39.184Z,0
2017-08-05T02:30:39.462Z,0
2017-08-05T02:31:39.190Z,0
2017-08-05T02:32:39.476Z,0
2017-08-05T02:33:39.463Z,0
2017-08-05T02:34:39.468Z,0
2017-08-05T02:35:39.511Z,0
2017-08-05T02:36:39.472Z,0
2017-08-05T02:37:39.494Z,0
2017-08-05T02:38:39.179Z,0
2017-08-05T02:39:39.506Z,0
2017-08-05T02:40:39.511Z,0
2017-08-05T02:41:39.486Z,0
2017-08-05T02:42:39.186Z,0
2017-08-05T02:43:39.493Z,0
2017-08-05T02:44:39.196Z,0
2017-08-05T02:45:39.495Z,0
2017-08-05T02:46:39.543Z,0
2017-08-05T02:47:39.510Z,0
2017-08-05T02:48:39.223Z,0
2017-08-05T02:49:39.525Z,0
2017-08-05T02:50:39.512Z,0
2017-08-05T02:51:39.216Z,0
2017-08-05T02:52:39.216Z,0
2017-08-05T02:53:39.516Z,0
2017-08-05T02:54:39.516Z,0
2017-08-05T02:55:39.562Z,0
2017-08-05T02:56:39.528Z,0
2017-08-05T02:57:39.536Z,0
2017-08-05T02:58:39.539Z,0
2017-08-05T02:59:39.532Z,0
2017-08-05T03:00:39.250Z,0
2017-08-05T03:01:42.691Z,0
2017-08-05T03:02:39.527Z,0
2017-08-05T03:03:39.530Z,0
2017-08-05T03:04:39.529Z,0
2017-08-05T03:05:39.537Z,0
2017-08-05T03:06:39.541Z,0
2017-08-05T03:07:39.538Z,0
2017-08-05T03:08:39.544Z,0
2017-08-05T03:09:39.249Z,0
2017-08-05T03:10:39.550Z,0
2017-08-05T03:11:39.553Z,0
2017-08-05T03:12:39.550Z,0
2017-08-05T03:13:39.552Z,0
2017-08-05T03:14:39.558Z,0
2017-08-05T03:15:39.559Z,0
2017-08-05T03:16:40.113Z,0
2017-08-05T03:17:39.556Z,0
2017-08-05T03:18:39.267Z,0
2017-08-05T03:19:39.564Z,0
2017-08-05T03:20:39.280Z,0
2017-08-05T03:21:39.569Z,0
2017-08-05T03:22:39.586Z,4
2017-08-05T03:23:39.570Z,4
2017-08-05T03:24:39.277Z,4
2017-08-05T03:25:39.575Z,0
2017-08-05T03:26:39.584Z,0
2017-08-05T03:27:39.577Z,4
2017-08-05T03:28:39.289Z,4
2017-08-05T03:29:39.315Z,4
2017-08-05T03:30:39.305Z,4
2017-08-05T03:31:41.691Z,4
2017-08-05T03:32:38.988Z,8
2017-08-05T03:33:38.987Z,8
2017-08-05T03:34:38.997Z,8
2017-08-05T03:35:39.609Z,8
2017-08-05T03:36:39.604Z,12
2017-08-05T03:37:39.300Z,16
2017-08-05T03:38:39.603Z,12
2017-08-05T03:39:39.604Z,20
2017-08-05T03:40:39.614Z,20
2017-08-05T03:41:39.617Z,24
2017-08-05T03:42:39.311Z,24
2017-08-05T03:43:39.608Z,28
2017-08-05T03:44:39.630Z,32
2017-08-05T03:45:39.319Z,40
2017-08-05T03:46:39.916Z,40
2017-08-05T03:47:39.621Z,44
2017-08-05T03:48:39.624Z,52
2017-08-05T03:49:39.628Z,56
2017-08-05T03:50:39.341Z,60
2017-08-05T03:51:39.659Z,68
2017-08-05T03:52:39.348Z,76
2017-08-05T03:53:39.331Z,80
2017-08-05T03:54:39.637Z,92
2017-08-05T03:55:39.632Z,104
2017-08-05T03:56:39.650Z,112
2017-08-05T03:57:39.653Z,120
2017-08-05T03:58:39.650Z,132
2017-08-05T03:59:39.347Z,136
2017-08-05T04:00:39.651Z,148
2017-08-05T04:01:43.019Z,156
2017-08-05T04:02:39.661Z,164
2017-08-05T04:03:39.354Z,176
2017-08-05T04:04:39.362Z,184
2017-08-05T04:05:39.373Z,204
2017-08-05T04:06:39.663Z,220
2017-08-05T04:07:39.670Z,240
2017-08-05T04:08:39.671Z,260
2017-08-05T04:09:39.362Z,280
2017-08-05T04:10:39.677Z,300
2017-08-05T04:11:39.672Z,320
2017-08-05T04:12:39.682Z,340
2017-08-05T04:13:39.674Z,364
2017-08-05T04:14:39.680Z,388
2017-08-05T04:15:39.687Z,416
2017-08-05T04:16:39.380Z,440
2017-08-05T04:17:39.745Z,472
2017-08-05T04:18:39.697Z,496
2017-08-05T04:19:39.705Z,520
2017-08-05T04:20:39.403Z,520
2017-08-05T04:21:39.696Z,536
2017-08-05T04:22:39.700Z,552
2017-08-05T04:23:39.699Z,560
2017-08-05T04:24:39.407Z,568
2017-08-05T04:25:39.710Z,588
2017-08-05T04:26:39.706Z,604
2017-08-05T04:27:39.706Z,620
2017-08-05T04:28:39.713Z,660
2017-08-05T04:29:39.417Z,712
2017-08-05T04:30:39.421Z,748
2017-08-05T04:31:39.713Z,900
2017-08-05T04:32:40.424Z,996
2017-08-05T04:33:39.734Z,1720
2017-08-05T04:34:39.734Z,1560
2017-08-05T04:35:39.122Z,1564
2017-08-05T04:36:39.771Z,1476
2017-08-05T04:37:39.738Z,1288
2017-08-05T04:38:39.440Z,1360
2017-08-05T04:39:39.741Z,2568
2017-08-05T04:40:39.761Z,1388
2017-08-05T04:41:39.756Z,1340
2017-08-05T04:42:39.756Z,1116
2017-08-05T04:43:39.461Z,1252
2017-08-05T04:44:39.759Z,1396
2017-08-05T04:45:39.763Z,1580
2017-08-05T04:46:39.454Z,3464
2017-08-05T04:47:41.360Z,4440
2017-08-05T04:48:39.459Z,2912
2017-08-05T04:49:39.765Z,2756
2017-08-05T04:50:39.768Z,4284
2017-08-05T04:51:39.486Z,5068
2017-08-05T04:52:39.477Z,5964
2017-08-05T04:53:39.781Z,4144
2017-08-05T04:54:39.783Z,6332
2017-08-05T04:55:39.821Z,6432
2017-08-05T04:56:39.795Z,4764
2017-08-05T04:57:39.793Z,3472
2017-08-05T04:58:39.797Z,5380
2017-08-05T04:59:39.802Z,1680
2017-08-05T05:00:39.811Z,1612
2017-08-05T05:01:39.506Z,1628
2017-08-05T05:02:40.180Z,1668
2017-08-05T05:03:39.830Z,1732
2017-08-05T05:04:39.831Z,1804
2017-08-05T05:05:39.838Z,1884
2017-08-05T05:06:39.836Z,1972
2017-08-05T05:07:39.538Z,2068
2017-08-05T05:08:39.238Z,2164
2017-08-05T05:09:39.849Z,2228
2017-08-05T05:10:39.874Z,2320
2017-08-05T05:11:39.260Z,2432
2017-08-05T05:12:39.851Z,2552
2017-08-05T05:13:39.259Z,2664
2017-08-05T05:14:39.866Z,2748
2017-08-05T05:15:39.866Z,2824
2017-08-05T05:16:39.564Z,2948
2017-08-05T05:17:41.672Z,3148
2017-08-05T05:18:39.268Z,3380
2017-08-05T05:19:39.587Z,3804
2017-08-05T05:20:39.591Z,3652
2017-08-05T05:21:39.600Z,3716
2017-08-05T05:22:39.904Z,3900
2017-08-05T05:23:39.891Z,4200
2017-08-05T05:24:39.308Z,8100
2017-08-05T05:25:39.897Z,8840
2017-08-05T05:26:39.616Z,3860
2017-08-05T05:27:39.899Z,3648
2017-08-05T05:28:39.920Z,3612
2017-08-05T05:29:39.917Z,4088
2017-08-05T05:30:39.931Z,4672
2017-08-05T05:31:39.623Z,3792
2017-08-05T05:32:40.275Z,3632
2017-08-05T05:33:39.925Z,3500
2017-08-05T05:34:39.939Z,3428
2017-08-05T05:35:39.650Z,3424
2017-08-05T05:36:39.644Z,3472
2017-08-05T05:37:39.640Z,3748
2017-08-05T05:38:39.949Z,3964
2017-08-05T05:39:39.951Z,4200
2017-08-05T05:40:39.953Z,4756
2017-08-05T05:41:39.958Z,5088
2017-08-05T05:42:39.961Z,5188
2017-08-05T05:43:39.670Z,5140
2017-08-05T05:44:39.971Z,4512
2017-08-05T05:45:39.971Z,4428
2017-08-05T05:46:39.976Z,4772
2017-08-05T05:47:39.985Z,5096
2017-08-05T05:48:39.991Z,5212
2017-08-05T05:49:39.684Z,5180
2017-08-05T05:50:39.688Z,5068
2017-08-05T05:51:39.693Z,4852
2017-08-05T05:52:39.699Z,4784
2017-08-05T05:53:40.005Z,4960
2017-08-05T05:54:39.707Z,6728
2017-08-05T05:55:40.012Z,4936
2017-08-05T05:56:40.022Z,4932
2017-08-05T05:57:40.034Z,4792
2017-08-05T05:58:40.021Z,4812
2017-08-05T05:59:40.034Z,4996
2017-08-05T06:00:40.036Z,5232
2017-08-05T06:01:39.731Z,5472
2017-08-05T06:02:39.743Z,5596
2017-08-05T06:03:42.642Z,5620
2017-08-05T06:04:39.756Z,5744
2017-08-05T06:05:40.052Z,5884
2017-08-05T06:06:39.747Z,5956
2017-08-05T06:07:40.056Z,6152
2017-08-05T06:08:40.062Z,6240
2017-08-05T06:09:40.074Z,5928
2017-08-05T06:10:40.148Z,5648
2017-08-05T06:11:39.775Z,5472
2017-08-05T06:12:40.084Z,5176
2017-08-05T06:13:40.100Z,4720
2017-08-05T06:14:40.086Z,4416
2017-08-05T06:15:40.089Z,4288
2017-08-05T06:16:39.803Z,4216
2017-08-05T06:17:39.803Z,4364
2017-08-05T06:18:40.146Z,4436
2017-08-05T06:19:39.804Z,4552
2017-08-05T06:20:39.814Z,4560
2017-08-05T06:21:40.108Z,4736
2017-08-05T06:22:39.512Z,4836
2017-08-05T06:23:39.817Z,4860
2017-08-05T06:24:39.816Z,4932
2017-08-05T06:25:40.153Z,5020
2017-08-05T06:26:40.123Z,5036
2017-08-05T06:27:40.133Z,4924
2017-08-05T06:28:40.133Z,4920
2017-08-05T06:29:40.146Z,5652
2017-08-05T06:30:40.163Z,15968
2017-08-05T06:31:40.152Z,5692
2017-08-05T06:32:40.154Z,5444
2017-08-05T06:33:41.372Z,5732
2017-08-05T06:34:39.870Z,6612
2017-08-05T06:35:40.173Z,6964
2017-08-05T06:36:39.874Z,6244
2017-08-05T06:37:40.181Z,6504
2017-08-05T06:38:40.183Z,16256
2017-08-05T06:39:40.182Z,8160
2017-08-05T06:40:39.886Z,6616
2017-08-05T06:41:40.194Z,6856
2017-08-05T06:42:40.200Z,6700
2017-08-05T06:43:40.199Z,6912
2017-08-05T06:44:39.906Z,6196
2017-08-05T06:45:40.234Z,6084
2017-08-05T06:46:40.217Z,5848
2017-08-05T06:47:40.231Z,5908
2017-08-05T06:48:43.553Z,7324
2017-08-05T06:49:40.228Z,12820
2017-08-05T06:50:40.243Z,12180
2017-08-05T06:51:40.251Z,16896
2017-08-05T06:52:39.945Z,17440
2017-08-05T06:53:39.947Z,12808
2017-08-05T06:54:39.962Z,19072
2017-08-05T06:55:40.263Z,18624
2017-08-05T06:56:40.275Z,18528
2017-08-05T06:57:39.971Z,17888
2017-08-05T06:58:40.298Z,17504
2017-08-05T06:59:40.285Z,17280
2017-08-05T07:00:40.326Z,8976
2017-08-05T07:01:40.299Z,16160
2017-08-05T07:02:39.706Z,12220
2017-08-05T07:03:40.308Z,15100
2017-08-05T07:04:40.325Z,16320
2017-08-05T07:05:40.331Z,16096
2017-08-05T07:06:39.451Z,15912
2017-08-05T07:07:40.052Z,11572
2017-08-05T07:08:40.352Z,15104
2017-08-05T07:09:40.364Z,15540
2017-08-05T07:10:40.371Z,15172
2017-08-05T07:11:40.069Z,15080
2017-08-05T07:12:40.082Z,15012
2017-08-05T07:13:40.395Z,14980
2017-08-05T07:14:40.098Z,14912
2017-08-05T07:15:40.437Z,14908
2017-08-05T07:16:39.815Z,14880
2017-08-05T07:17:40.427Z,14820
2017-08-05T07:18:40.429Z,14664
2017-08-05T07:19:40.147Z,14600
2017-08-05T07:20:40.500Z,14472
2017-08-05T07:21:39.859Z,14344
2017-08-05T07:22:40.494Z,14184
2017-08-05T07:23:40.171Z,13808
2017-08-05T07:24:40.184Z,13512
2017-08-05T07:25:40.563Z,12876
2017-08-05T07:26:40.524Z,12028
2017-08-05T07:27:40.210Z,11648
2017-08-05T07:28:40.249Z,11396
2017-08-05T07:29:40.238Z,11600
2017-08-05T07:30:40.625Z,11784
2017-08-05T07:31:40.262Z,11816
2017-08-05T07:32:40.257Z,11896
2017-08-05T07:33:39.978Z,12084
2017-08-05T07:34:41.829Z,12272
2017-08-05T07:35:40.660Z,12384
2017-08-05T07:36:40.294Z,12420
2017-08-05T07:37:40.298Z,12696
2017-08-05T07:38:40.312Z,12968
2017-08-05T07:39:40.636Z,13124
2017-08-05T07:40:40.385Z,13184
2017-08-05T07:41:40.652Z,13236
2017-08-05T07:42:40.684Z,13224
2017-08-05T07:43:40.676Z,13300
2017-08-05T07:44:40.680Z,13316
2017-08-05T07:45:40.721Z,13384
2017-08-05T07:46:40.708Z,13468
2017-08-05T07:47:40.718Z,13544
2017-08-05T07:48:40.714Z,13648
2017-08-05T07:49:40.914Z,13684
2017-08-05T07:50:40.747Z,13524
2017-08-05T07:51:40.435Z,13008
2017-08-05T07:52:40.442Z,13112
2017-08-05T07:53:40.764Z,12624
2017-08-05T07:54:40.464Z,12152
2017-08-05T07:55:40.838Z,11516
2017-08-05T07:56:40.500Z,10924
2017-08-05T07:57:40.792Z,10960
2017-08-05T07:58:40.804Z,11776
2017-08-05T07:59:40.508Z,12776
2017-08-05T08:00:40.512Z,13092
2017-08-05T08:01:40.836Z,13144
2017-08-05T08:02:40.852Z,13136
2017-08-05T08:03:40.846Z,13200
2017-08-05T08:04:46.724Z,13192
2017-08-05T08:05:40.995Z,13168
2017-08-05T08:06:40.594Z,13148
2017-08-05T08:07:40.889Z,13272
2017-08-05T08:08:40.616Z,13352
2017-08-05T08:09:40.941Z,13740
2017-08-05T08:10:40.302Z,14224
2017-08-05T08:11:40.920Z,14408
2017-08-05T08:12:40.929Z,13220
2017-08-05T08:13:40.675Z,13440
2017-08-05T08:14:40.670Z,13312
2017-08-05T08:15:40.766Z,9584
2017-08-05T08:16:40.717Z,13792
2017-08-05T08:17:40.708Z,10636
2017-08-05T08:18:40.713Z,9632
2017-08-05T08:19:41.002Z,11304
2017-08-05T08:20:40.916Z,10320
2017-08-05T08:21:40.747Z,10564
2017-08-05T08:22:41.037Z,10200
2017-08-05T08:23:40.741Z,8656
2017-08-05T08:24:40.780Z,8164
2017-08-05T08:25:41.062Z,9716
2017-08-05T08:26:40.781Z,8052
2017-08-05T08:27:40.773Z,8580
2017-08-05T08:28:41.082Z,8848
2017-08-05T08:29:41.087Z,8224
2017-08-05T08:30:41.168Z,7276
2017-08-05T08:31:41.111Z,7920
2017-08-05T08:32:40.823Z,11536
2017-08-05T08:33:40.831Z,11872
2017-08-05T08:34:40.821Z,12812
2017-08-05T08:35:42.482Z,12180
2017-08-05T08:36:41.130Z,12380
2017-08-05T08:37:41.137Z,11816
2017-08-05T08:38:40.846Z,12320
2017-08-05T08:39:40.875Z,11408
2017-08-05T08:40:40.654Z,12080
2017-08-05T08:41:41.184Z,11840
2017-08-05T08:42:41.193Z,11744
2017-08-05T08:43:41.187Z,12372
2017-08-05T08:44:40.923Z,11108
2017-08-05T08:45:41.043Z,12456
2017-08-05T08:46:40.634Z,9836
2017-08-05T08:47:40.644Z,10328
2017-08-05T08:48:41.231Z,9500
2017-08-05T08:49:40.958Z,9404
2017-08-05T08:50:44.958Z,11012
2017-08-05T08:51:41.257Z,11736
2017-08-05T08:52:41.268Z,9228
2017-08-05T08:53:40.976Z,8584
2017-08-05T08:54:41.317Z,9444
2017-08-05T08:55:41.327Z,10564
2017-08-05T08:56:41.303Z,9772
2017-08-05T08:57:40.739Z,10056
2017-08-05T08:58:41.328Z,9236
2017-08-05T08:59:41.323Z,12952
2017-08-05T09:00:41.355Z,11688
2017-08-05T09:01:41.339Z,11616
2017-08-05T09:02:41.341Z,11296
2017-08-05T09:03:41.390Z,10936
2017-08-05T09:04:41.073Z,10712
2017-08-05T09:05:40.774Z,10692
2017-08-05T09:06:41.068Z,10908
2017-08-05T09:07:40.813Z,11400
2017-08-05T09:08:41.085Z,12172
2017-08-05T09:09:41.106Z,13092
2017-08-05T09:10:41.104Z,14208
2017-08-05T09:11:41.908Z,14932
2017-08-05T09:12:41.418Z,16992
2017-08-05T09:13:41.124Z,17664
2017-08-05T09:14:40.857Z,15648
2017-08-05T09:15:40.630Z,16480
2017-08-05T09:16:42.246Z,14772
2017-08-05T09:17:41.142Z,12768
2017-08-05T09:18:41.473Z,12212
2017-08-05T09:19:41.185Z,11796
2017-08-05T09:20:41.255Z,11676
2017-08-05T09:21:41.671Z,11456
2017-08-05T09:22:41.504Z,11444
2017-08-05T09:23:41.500Z,11456
2017-08-05T09:24:41.535Z,11364
2017-08-05T09:25:41.539Z,11224
2017-08-05T09:26:41.536Z,10932
2017-08-05T09:27:41.531Z,10828
2017-08-05T09:28:41.532Z,10600
2017-08-05T09:29:40.938Z,10304
2017-08-05T09:30:41.330Z,10152
2017-08-05T09:31:41.565Z,10144
2017-08-05T09:32:41.552Z,10108
2017-08-05T09:33:41.264Z,10024
2017-08-05T09:34:41.275Z,10024
2017-08-05T09:35:41.329Z,10136
2017-08-05T09:36:42.843Z,11396
2017-08-05T09:37:41.289Z,11636
2017-08-05T09:38:41.592Z,11540
2017-08-05T09:39:41.327Z,11544
2017-08-05T09:40:41.700Z,11128
2017-08-05T09:41:41.622Z,12936
2017-08-05T09:42:41.625Z,16192
2017-08-05T09:43:41.337Z,11320
2017-08-05T09:44:41.661Z,10624
2017-08-05T09:45:41.688Z,11140
2017-08-05T09:46:41.690Z,11260
2017-08-05T09:47:41.671Z,13112
2017-08-05T09:48:41.394Z,10204
2017-08-05T09:49:41.377Z,12776
2017-08-05T09:50:41.074Z,12972
2017-08-05T09:51:43.041Z,12724
2017-08-05T09:52:41.707Z,12368
2017-08-05T09:53:40.807Z,12376
2017-08-05T09:54:41.100Z,12284
2017-08-05T09:55:41.809Z,12240
2017-08-05T09:56:41.423Z,11984
2017-08-05T09:57:41.441Z,11796
2017-08-05T09:58:41.455Z,11600
2017-08-05T09:59:41.463Z,11484
2017-08-05T10:00:41.586Z,11444
2017-08-05T10:01:41.453Z,11460
2017-08-05T10:02:41.773Z,11564
2017-08-05T10:03:41.469Z,11564
2017-08-05T10:04:41.800Z,11576
2017-08-05T10:05:41.626Z,11580
2017-08-05T10:06:41.817Z,11320
2017-08-05T10:07:41.496Z,10816
2017-08-05T10:08:41.519Z,10456
2017-08-05T10:09:41.540Z,10188
2017-08-05T10:10:41.612Z,10024
2017-08-05T10:11:41.841Z,8332
2017-08-05T10:12:41.640Z,9824
2017-08-05T10:13:41.553Z,8816
2017-08-05T10:14:41.857Z,9912
2017-08-05T10:15:41.286Z,9988
2017-08-05T10:16:41.864Z,9220
2017-08-05T10:17:41.868Z,9344
2017-08-05T10:18:41.592Z,9732
2017-08-05T10:19:41.585Z,9668
2017-08-05T10:20:41.607Z,7800
2017-08-05T10:21:41.912Z,10008
2017-08-05T10:22:41.977Z,10272
2017-08-05T10:23:41.627Z,9980
2017-08-05T10:24:41.647Z,10408
2017-08-05T10:25:41.950Z,10500
2017-08-05T10:26:41.944Z,11312
2017-08-05T10:27:41.945Z,12620
2017-08-05T10:28:41.951Z,13232
2017-08-05T10:29:41.956Z,13432
2017-08-05T10:30:41.364Z,13528
2017-08-05T10:31:41.989Z,13736
2017-08-05T10:32:41.679Z,11512
2017-08-05T10:33:41.385Z,12960
2017-08-05T10:34:41.996Z,12364
2017-08-05T10:35:42.093Z,12980
2017-08-05T10:36:42.028Z,12316
2017-08-05T10:37:43.529Z,10624
2017-08-05T10:38:42.034Z,12668
2017-08-05T10:39:42.038Z,13752
2017-08-05T10:40:42.148Z,12740
2017-08-05T10:41:42.082Z,11564
2017-08-05T10:42:42.051Z,11080
2017-08-05T10:43:42.058Z,10780
2017-08-05T10:44:41.766Z,10856
2017-08-05T10:45:42.175Z,8044
2017-08-05T10:46:42.086Z,8760
2017-08-05T10:47:42.090Z,9488
2017-08-05T10:48:42.097Z,12488
2017-08-05T10:49:42.154Z,10464
2017-08-05T10:50:41.893Z,10900
2017-08-05T10:51:42.124Z,13236
2017-08-05T10:52:42.301Z,10884
2017-08-05T10:53:42.204Z,10368
2017-08-05T10:54:42.151Z,10700
2017-08-05T10:55:42.218Z,10620
2017-08-05T10:56:42.156Z,11480
2017-08-05T10:57:41.880Z,12080
2017-08-05T10:58:42.171Z,11664
2017-08-05T10:59:42.180Z,11940
2017-08-05T11:00:42.279Z,12320
2017-08-05T11:01:41.905Z,12220
2017-08-05T11:02:42.214Z,12300
2017-08-05T11:03:42.221Z,15412
2017-08-05T11:04:41.317Z,15516
2017-08-05T11:05:42.286Z,16032
2017-08-05T11:06:41.958Z,15904
2017-08-05T11:07:45.343Z,15508
2017-08-05T11:08:41.994Z,13812
2017-08-05T11:09:41.966Z,14820
2017-08-05T11:10:41.972Z,16608
2017-08-05T11:11:42.328Z,13628
2017-08-05T11:12:41.989Z,13284
2017-08-05T11:13:42.300Z,13936
2017-08-05T11:14:41.989Z,16928
2017-08-05T11:15:42.368Z,13852
2017-08-05T11:16:42.043Z,14016
2017-08-05T11:17:42.051Z,14796
2017-08-05T11:18:42.042Z,15512
2017-08-05T11:19:42.393Z,14376
2017-08-05T11:20:42.112Z,12668
2017-08-05T11:21:42.047Z,12396
2017-08-05T11:22:42.052Z,14536
2017-08-05T11:23:42.425Z,15352
2017-08-05T11:24:42.371Z,15272
2017-08-05T11:25:42.412Z,14476
2017-08-05T11:26:42.074Z,13708
2017-08-05T11:27:41.807Z,10976
2017-08-05T11:28:42.429Z,12176
2017-08-05T11:29:42.460Z,11828
2017-08-05T11:30:42.191Z,11868
2017-08-05T11:31:42.110Z,12236
2017-08-05T11:32:42.125Z,12168
2017-08-05T11:33:42.432Z,12372
2017-08-05T11:34:42.457Z,12112
2017-08-05T11:35:42.531Z,12544
2017-08-05T11:36:42.472Z,9964
2017-08-05T11:37:42.472Z,9816
2017-08-05T11:38:44.381Z,9652
2017-08-05T11:39:42.504Z,9732
2017-08-05T11:40:42.232Z,10176
2017-08-05T11:41:42.491Z,10212
2017-08-05T11:42:42.201Z,10696
2017-08-05T11:43:42.201Z,11096
2017-08-05T11:44:42.524Z,13376
2017-08-05T11:45:42.598Z,13300
2017-08-05T11:46:42.527Z,10236
2017-08-05T11:47:41.940Z,9856
2017-08-05T11:48:43.346Z,10908
2017-08-05T11:49:42.553Z,8088
2017-08-05T11:50:42.008Z,7516
2017-08-05T11:51:42.274Z,5560
2017-08-05T11:52:42.728Z,7684
2017-08-05T11:53:42.349Z,7548
2017-08-05T11:54:42.305Z,7524
2017-08-05T11:55:42.676Z,7564
2017-08-05T11:56:42.606Z,7636
2017-08-05T11:57:42.370Z,7848
2017-08-05T11:58:41.713Z,8036
2017-08-05T11:59:42.648Z,8180
2017-08-05T12:00:42.399Z,8280
2017-08-05T12:01:42.368Z,8240
2017-08-05T12:02:42.365Z,6704
2017-08-05T12:03:42.655Z,9412
2017-08-05T12:04:42.067Z,10108
2017-08-05T12:05:42.417Z,10156
2017-08-05T12:06:42.681Z,10296
2017-08-05T12:07:42.075Z,9460
2017-08-05T12:08:44.487Z,9192
2017-08-05T12:09:42.398Z,9680
2017-08-05T12:10:42.744Z,10164
2017-08-05T12:11:42.533Z,9824
2017-08-05T12:12:42.724Z,9888
2017-08-05T12:13:42.428Z,8920
2017-08-05T12:14:41.828Z,11184
2017-08-05T12:15:42.505Z,11928
2017-08-05T12:16:42.437Z,12264
2017-08-05T12:17:42.751Z,12732
2017-08-05T12:18:42.477Z,12344
2017-08-05T12:19:42.479Z,9624
2017-08-05T12:20:42.823Z,10112
2017-08-05T12:21:42.782Z,7844
2017-08-05T12:22:42.512Z,7544
2017-08-05T12:23:42.853Z,8948
2017-08-05T12:24:42.813Z,8820
2017-08-05T12:25:42.901Z,8744
2017-08-05T12:26:42.803Z,9256
2017-08-05T12:27:42.546Z,9980
2017-08-05T12:28:42.850Z,9964
2017-08-05T12:29:42.539Z,11016
2017-08-05T12:30:42.870Z,10408
2017-08-05T12:31:42.548Z,11404
2017-08-05T12:32:42.861Z,10584
2017-08-05T12:33:42.865Z,11432
2017-08-05T12:34:42.298Z,11896
2017-08-05T12:35:42.987Z,11660
2017-08-05T12:36:42.677Z,11676
2017-08-05T12:37:42.894Z,12196
2017-08-05T12:38:42.804Z,9256
2017-08-05T12:39:42.943Z,8528
2017-08-05T12:40:43.004Z,9076
2017-08-05T12:41:42.919Z,10928
2017-08-05T12:42:42.940Z,10884
2017-08-05T12:43:42.669Z,11280
2017-08-05T12:44:42.648Z,11584
2017-08-05T12:45:43.049Z,9512
2017-08-05T12:46:42.972Z,9100
2017-08-05T12:47:42.692Z,8600
2017-08-05T12:48:42.984Z,8420
2017-08-05T12:49:43.002Z,9476
2017-08-05T12:50:42.454Z,10524
2017-08-05T12:51:43.013Z,12600
2017-08-05T12:52:42.390Z,12180
2017-08-05T12:53:43.085Z,9660
2017-08-05T12:54:42.720Z,8368
2017-08-05T12:55:43.114Z,7444
2017-08-05T12:56:42.726Z,7144
2017-08-05T12:57:42.772Z,6104
2017-08-05T12:58:42.751Z,5496
2017-08-05T12:59:43.057Z,5164
2017-08-05T13:00:43.068Z,4912
2017-08-05T13:01:43.067Z,4740
2017-08-05T13:02:43.087Z,4988
2017-08-05T13:03:43.132Z,5800
2017-08-05T13:04:43.098Z,8372
2017-08-05T13:05:42.893Z,9756
2017-08-05T13:06:43.138Z,8292
2017-08-05T13:07:42.835Z,7860
2017-08-05T13:08:43.120Z,7792
2017-08-05T13:09:42.818Z,7132
2017-08-05T13:10:42.930Z,7036
2017-08-05T13:11:42.828Z,7128
2017-08-05T13:12:42.903Z,7656
2017-08-05T13:13:42.858Z,7816
2017-08-05T13:14:43.172Z,8256
2017-08-05T13:15:42.887Z,8432
2017-08-05T13:16:42.866Z,8676
2017-08-05T13:17:43.274Z,8452
2017-08-05T13:18:43.218Z,8492
2017-08-05T13:19:43.206Z,9168
2017-08-05T13:20:43.204Z,9168
2017-08-05T13:21:43.230Z,9344
2017-08-05T13:22:43.226Z,7920
2017-08-05T13:23:43.270Z,7008
2017-08-05T13:24:43.229Z,6184
2017-08-05T13:25:43.334Z,5544
2017-08-05T13:26:42.962Z,5144
2017-08-05T13:27:43.262Z,4688
2017-08-05T13:28:43.317Z,4600
2017-08-05T13:29:43.278Z,5108
2017-08-05T13:30:43.007Z,6124
2017-08-05T13:31:42.989Z,7556
2017-08-05T13:32:42.991Z,8004